Current Conditions
Mostly Clear
Conditions



Pressure
1011.85 (hPa) - 29.88 (inHG)
Visibility

9.7 (km) - 6.0 (miles)
   Temperature
25  °C
Temperature
12  °C
Dewpoint
44  %
 Humidity
   Wind Speed
11  km/h
6  kts
7  mph
3.1  m/s
   Wind Direction
N
45°
E
90°
135°
S
180°
225°
W
270°
315°
 40°

North East
   Airport Data
EDDR
Saarbr├╝cken Airport
Metar :EDDR 251850Z AUTO 04006KT 010V070 CAVOK 25/12 Q1012 NOSIG
Tue 25th June 19:50 pm
   Raw Metar Info
Raw METAR is the most common format in the world for the transmission of observational weather data. It is highly standardized through the International Civil Aviation Organization (ICAO), which allows it to be understood throughout most of the world.
   API Info
Data Provided by
https://www.checkwx.com/weather/EDDR

Aviation Weather providing METAR, TAF, AIRMET, SIGMET and OUTLOOK Weather Reports
   © Info
CSS/SVG/PHP scripts were developed by weather34.com for use in the weather34 template © 2015-2024

Guide Info provided by Metar-Wikipedia